createdAt,value
2019-04-03T00:02:26.617Z,5.27
2019-04-03T00:04:56.329Z,5.57
2019-04-03T00:07:26.053Z,5.43
2019-04-03T00:09:55.756Z,5.90
2019-04-03T00:12:25.407Z,5.43
2019-04-03T00:14:55.190Z,5.47
2019-04-03T00:17:25.047Z,5.60
2019-04-03T00:19:54.697Z,5.40
2019-04-03T00:22:24.548Z,6.00
2019-04-03T00:24:54.487Z,5.77
2019-04-03T00:27:26.907Z,5.90
2019-04-03T00:29:56.609Z,6.17
2019-04-03T00:32:26.378Z,6.33
2019-04-03T00:34:57.629Z,5.60
2019-04-03T00:37:27.269Z,6.07
2019-04-03T00:39:57.038Z,5.97
2019-04-03T00:42:26.757Z,5.80
2019-04-03T00:44:56.537Z,6.03
2019-04-03T00:47:26.247Z,5.20
2019-04-03T00:49:56.897Z,5.80
2019-04-03T00:52:27.579Z,5.50
2019-04-03T00:54:57.784Z,5.97
2019-04-03T00:57:27.720Z,6.13
2019-04-03T00:59:57.387Z,6.50
2019-04-03T01:02:28.207Z,5.87
2019-04-03T01:04:58.863Z,6.30
2019-04-03T01:07:29.308Z,6.10
2019-04-03T01:09:59.945Z,5.90
2019-04-03T01:12:31.267Z,6.13
2019-04-03T01:15:02.191Z,5.97
2019-04-03T01:17:34.388Z,6.40
2019-04-03T01:20:04.693Z,6.00
2019-04-03T01:22:35.589Z,6.47
2019-04-03T01:25:09.518Z,6.53
2019-04-03T01:27:41.233Z,5.93
2019-04-03T01:30:12.116Z,6.77
2019-04-03T01:32:42.046Z,5.23
2019-04-03T01:35:11.667Z,5.93
2019-04-03T01:37:41.318Z,5.80
2019-04-03T01:40:11.058Z,6.87
2019-04-03T01:42:40.799Z,5.50
2019-04-03T01:45:10.642Z,6.23
2019-04-03T01:47:40.326Z,6.13
2019-04-03T01:50:10.332Z,6.57
2019-04-03T01:52:40.035Z,6.00
2019-04-03T01:55:09.824Z,6.93
2019-04-03T01:57:39.695Z,6.90
2019-04-03T02:00:09.804Z,7.60
2019-04-03T02:02:39.558Z,6.90
2019-04-03T02:05:12.125Z,7.87
2019-04-03T02:07:40.988Z,7.50
2019-04-03T02:10:17.791Z,6.90
2019-04-03T02:12:50.407Z,7.03
2019-04-03T02:15:21.453Z,6.17
2019-04-03T02:17:51.124Z,6.83
2019-04-03T02:20:20.919Z,7.80
2019-04-03T02:22:50.700Z,7.23
2019-04-03T02:25:20.417Z,7.00
2019-04-03T02:27:50.169Z,7.87
2019-04-03T02:30:20.627Z,8.03
2019-04-03T02:32:50.434Z,7.73
2019-04-03T02:35:20.170Z,7.23
2019-04-03T02:37:50.784Z,7.00
2019-04-03T02:40:20.942Z,7.70
2019-04-03T02:42:50.681Z,7.00
2019-04-03T02:45:22.760Z,6.87
2019-04-03T02:47:51.963Z,6.50
2019-04-03T02:50:25.670Z,6.43
2019-04-03T02:52:58.236Z,6.43
2019-04-03T02:55:27.217Z,7.20
2019-04-03T02:57:57.288Z,6.90
2019-04-03T03:00:27.142Z,7.00
2019-04-03T03:02:57.061Z,7.40
2019-04-03T03:05:28.533Z,7.13
2019-04-03T03:07:58.697Z,7.30
2019-04-03T03:10:30.927Z,7.40
2019-04-03T03:13:02.121Z,8.07
2019-04-03T03:15:32.472Z,7.47
2019-04-03T03:18:05.042Z,8.03
2019-04-03T03:20:39.179Z,8.07
2019-04-03T03:23:07.360Z,8.10
2019-04-03T03:25:37.847Z,7.87
2019-04-03T03:28:08.409Z,7.90
2019-04-03T03:30:46.058Z,7.67
2019-04-03T03:33:28.307Z,7.93
2019-04-03T03:35:46.261Z,7.90
2019-04-03T03:38:14.836Z,7.00
2019-04-03T03:40:47.204Z,7.57
2019-04-03T03:43:18.352Z,7.03
2019-04-03T03:45:51.718Z,7.57
2019-04-03T03:48:20.715Z,8.40
2019-04-03T03:50:51.163Z,7.17
2019-04-03T03:53:21.183Z,8.03
2019-04-03T03:55:52.109Z,7.93
2019-04-03T03:58:22.457Z,7.70
2019-04-03T04:00:58.304Z,6.90
2019-04-03T04:03:24.874Z,7.03
2019-04-03T04:05:56.424Z,7.30
2019-04-03T04:08:26.360Z,6.97
2019-04-03T04:10:59.568Z,7.00
2019-04-03T04:13:28.101Z,7.60
2019-04-03T04:16:02.808Z,7.10
2019-04-03T04:18:29.510Z,7.20
2019-04-03T04:20:59.365Z,6.73
2019-04-03T04:23:29.311Z,7.27
2019-04-03T04:26:01.606Z,7.00
2019-04-03T04:28:31.054Z,7.47
2019-04-03T04:31:01.253Z,6.90
2019-04-03T04:33:31.016Z,7.07
2019-04-03T04:36:00.832Z,6.67
2019-04-03T04:38:30.663Z,6.97
2019-04-03T04:41:01.863Z,6.67
2019-04-03T04:43:32.156Z,7.40
2019-04-03T04:46:02.007Z,7.37
2019-04-03T04:48:31.673Z,6.67
2019-04-03T04:51:01.540Z,7.00
2019-04-03T04:53:31.289Z,7.93
2019-04-03T04:56:01.230Z,7.43
2019-04-03T04:58:31.041Z,7.57
2019-04-03T05:01:01.027Z,7.50
2019-04-03T05:03:30.882Z,7.53
2019-04-03T05:06:00.657Z,7.10
2019-04-03T05:08:30.841Z,7.40
2019-04-03T05:11:01.844Z,7.47
2019-04-03T05:13:31.772Z,7.23
2019-04-03T05:16:01.684Z,7.67
2019-04-03T05:18:31.483Z,6.67
2019-04-03T05:21:04.798Z,6.60
2019-04-03T05:23:34.526Z,7.00
2019-04-03T05:26:04.317Z,7.17
2019-04-03T05:28:35.798Z,7.60
2019-04-03T05:31:06.087Z,6.90
2019-04-03T05:33:37.083Z,7.47
2019-04-03T05:36:07.070Z,7.73
2019-04-03T05:38:38.090Z,7.80
2019-04-03T05:41:08.303Z,7.47
2019-04-03T05:43:38.072Z,7.30
2019-04-03T05:46:07.920Z,7.73
2019-04-03T05:48:40.201Z,7.20
2019-04-03T05:51:10.260Z,7.87
2019-04-03T05:53:40.127Z,7.80
2019-04-03T05:56:11.608Z,7.80
2019-04-03T05:58:54.665Z,7.33
2019-04-03T06:01:15.502Z,7.43
2019-04-03T06:03:47.993Z,8.17
2019-04-03T06:06:17.847Z,7.60
2019-04-03T06:08:50.652Z,7.57
2019-04-03T06:11:20.773Z,7.80
2019-04-03T06:13:50.914Z,8.40
2019-04-03T06:16:23.529Z,7.97
2019-04-03T06:18:52.092Z,7.63
2019-04-03T06:21:21.824Z,7.57
2019-04-03T06:23:52.668Z,7.80
2019-04-03T06:26:23.442Z,7.77
2019-04-03T06:28:56.361Z,7.73
2019-04-03T06:31:26.827Z,7.97
2019-04-03T06:33:57.933Z,8.57
2019-04-03T06:36:27.719Z,7.97
2019-04-03T06:38:57.728Z,8.27
2019-04-03T06:41:27.545Z,8.17
2019-04-03T06:43:57.201Z,7.90
2019-04-03T06:46:28.911Z,7.83
2019-04-03T06:49:00.792Z,7.63
2019-04-03T06:51:30.596Z,8.53
2019-04-03T06:54:00.417Z,9.03
2019-04-03T06:56:30.408Z,8.07
2019-04-03T06:59:00.430Z,8.93
2019-04-03T07:01:30.120Z,8.30
2019-04-03T07:03:59.853Z,8.57
2019-04-03T07:06:29.728Z,8.50
2019-04-03T07:09:00.889Z,8.13
2019-04-03T07:11:30.630Z,8.50
2019-04-03T07:14:00.593Z,7.67
2019-04-03T07:16:32.702Z,8.27
2019-04-03T07:19:06.038Z,8.73
2019-04-03T07:21:36.171Z,8.90
2019-04-03T07:24:06.496Z,8.47
2019-04-03T07:26:36.355Z,9.10
2019-04-03T07:29:06.104Z,9.00
2019-04-03T07:31:38.927Z,8.60
2019-04-03T07:34:09.168Z,9.10
2019-04-03T07:36:41.181Z,9.20
2019-04-03T07:39:13.026Z,8.50
2019-04-03T07:41:43.086Z,8.67
2019-04-03T07:44:13.235Z,9.00
2019-04-03T07:46:43.096Z,8.73
2019-04-03T07:49:14.191Z,9.00
2019-04-03T07:51:44.554Z,8.27
2019-04-03T07:54:14.844Z,8.67
2019-04-03T07:56:47.545Z,8.37
2019-04-03T07:59:17.794Z,8.47
2019-04-03T08:01:49.208Z,8.70
2019-04-03T08:04:24.786Z,7.57
2019-04-03T08:06:54.785Z,8.47
2019-04-03T08:09:24.606Z,8.50
2019-04-03T08:11:55.980Z,8.97
2019-04-03T08:14:25.975Z,7.97
2019-04-03T08:16:56.930Z,8.37
2019-04-03T08:19:27.539Z,8.33
2019-04-03T08:21:57.346Z,8.70
2019-04-03T08:24:32.831Z,8.63
2019-04-03T08:27:03.128Z,8.30
2019-04-03T08:29:37.899Z,8.83
2019-04-03T08:32:06.388Z,8.87
2019-04-03T08:34:36.184Z,8.80
2019-04-03T08:37:09.671Z,8.57
2019-04-03T08:39:37.708Z,8.10
2019-04-03T08:42:07.480Z,8.37
2019-04-03T08:44:37.740Z,8.10
2019-04-03T08:47:07.616Z,9.13
2019-04-03T08:49:38.669Z,8.90
2019-04-03T08:52:08.432Z,8.57
2019-04-03T08:54:38.378Z,8.87
2019-04-03T08:57:09.585Z,8.13
2019-04-03T08:59:39.321Z,9.37
2019-04-03T09:02:12.555Z,8.50
2019-04-03T09:04:40.494Z,8.73
2019-04-03T09:07:10.217Z,8.60
2019-04-03T09:09:40.596Z,9.53
2019-04-03T09:12:10.370Z,9.30
2019-04-03T09:14:42.110Z,9.17
2019-04-03T09:17:11.812Z,8.13
2019-04-03T09:19:42.322Z,8.90
2019-04-03T09:22:14.099Z,8.27
2019-04-03T09:24:44.069Z,8.53
2019-04-03T09:27:13.967Z,8.57
2019-04-03T09:29:45.154Z,8.93
2019-04-03T09:32:15.251Z,8.67
2019-04-03T09:34:45.064Z,9.53
2019-04-03T09:37:17.601Z,8.63
2019-04-03T09:39:46.537Z,8.70
2019-04-03T09:42:16.417Z,9.27
2019-04-03T09:44:46.410Z,8.87
2019-04-03T09:47:16.243Z,8.00
2019-04-03T09:49:46.060Z,9.10
2019-04-03T09:52:15.749Z,9.07
2019-04-03T09:54:45.439Z,7.70
2019-04-03T09:57:15.469Z,9.20
2019-04-03T09:59:45.309Z,8.67
2019-04-03T10:02:15.151Z,8.60
2019-04-03T10:04:44.916Z,8.53
2019-04-03T10:07:14.653Z,8.10
2019-04-03T10:09:44.951Z,8.87
2019-04-03T10:12:14.765Z,8.67
2019-04-03T10:14:44.500Z,9.27
2019-04-03T10:17:17.958Z,8.70
2019-04-03T10:19:47.750Z,8.57
2019-04-03T10:22:17.447Z,8.20
2019-04-03T10:24:47.586Z,8.77
2019-04-03T10:27:17.311Z,8.30
2019-04-03T10:29:49.145Z,8.80
2019-04-03T10:32:18.493Z,8.80
2019-04-03T10:34:48.377Z,8.80
2019-04-03T10:37:18.085Z,7.70
2019-04-03T10:39:48.577Z,8.93
2019-04-03T10:42:19.897Z,8.70
2019-04-03T10:44:49.652Z,7.97
2019-04-03T10:47:24.679Z,8.70
2019-04-03T10:49:50.901Z,8.73
2019-04-03T10:52:20.605Z,8.43
2019-04-03T10:54:51.008Z,8.83
2019-04-03T10:57:20.724Z,9.13
2019-04-03T10:59:54.090Z,8.17
2019-04-03T11:02:22.132Z,8.73
2019-04-03T11:04:51.954Z,8.93
2019-04-03T11:07:21.860Z,8.67
2019-04-03T11:09:51.729Z,8.40
2019-04-03T11:12:21.854Z,8.60
2019-04-03T11:14:51.674Z,8.87
2019-04-03T11:17:22.244Z,8.57
2019-04-03T11:19:53.221Z,8.50
2019-04-03T11:22:23.375Z,8.60
2019-04-03T11:24:53.337Z,8.30
2019-04-03T11:27:29.061Z,9.37
2019-04-03T11:29:55.088Z,8.90
2019-04-03T11:32:25.053Z,8.50
2019-04-03T11:34:55.303Z,8.93
2019-04-03T11:37:25.377Z,9.53
2019-04-03T11:40:02.474Z,8.50
2019-04-03T11:42:29.448Z,9.07
2019-04-03T11:44:58.408Z,8.10
2019-04-03T11:47:28.156Z,8.43
2019-04-03T11:50:00.646Z,8.57
2019-04-03T11:52:30.952Z,8.10
2019-04-03T11:55:01.276Z,8.27
2019-04-03T11:57:31.824Z,8.53
2019-04-03T12:00:02.168Z,8.80
2019-04-03T12:02:32.219Z,9.03
2019-04-03T12:05:02.371Z,8.60
2019-04-03T12:07:32.607Z,9.03
2019-04-03T12:10:03.832Z,8.30
2019-04-03T12:12:34.068Z,8.73
2019-04-03T12:15:04.310Z,8.67
2019-04-03T12:17:34.356Z,8.58
2019-04-03T12:20:06.561Z,8.40
2019-04-03T12:22:36.351Z,8.90
2019-04-03T12:25:08.362Z,9.08
2019-04-03T12:27:38.187Z,8.78
2019-04-03T12:30:09.248Z,8.60
2019-04-03T12:32:43.493Z,8.88
2019-04-03T12:35:11.156Z,8.45
2019-04-03T12:37:41.915Z,8.43
2019-04-03T12:40:12.674Z,9.40
2019-04-03T12:42:44.455Z,9.17
2019-04-03T12:45:17.448Z,8.90
2019-04-03T12:47:46.634Z,8.75
2019-04-03T12:50:16.667Z,9.00
2019-04-03T12:52:46.555Z,8.90
2019-04-03T12:55:16.271Z,9.65
2019-04-03T12:57:48.980Z,8.70
2019-04-03T13:00:20.344Z,8.98
2019-04-03T13:02:52.414Z,8.28
2019-04-03T13:05:22.199Z,8.60
2019-04-03T13:07:51.887Z,9.15
2019-04-03T13:10:22.313Z,8.90
2019-04-03T13:12:54.710Z,8.98
2019-04-03T13:15:23.704Z,9.40
2019-04-03T13:17:53.535Z,9.13
2019-04-03T13:20:23.435Z,8.73
2019-04-03T13:22:55.162Z,9.23
2019-04-03T13:25:25.178Z,8.38
2019-04-03T13:27:55.090Z,8.85
2019-04-03T13:30:26.758Z,10.95
2019-04-03T13:32:59.709Z,8.70
2019-04-03T13:35:30.828Z,9.18
2019-04-03T13:38:00.594Z,8.58
2019-04-03T13:40:30.402Z,8.70
2019-04-03T13:43:00.685Z,8.63
2019-04-03T13:45:31.035Z,8.10
2019-04-03T13:48:02.148Z,8.08
2019-04-03T13:50:32.827Z,8.13
2019-04-03T13:53:02.676Z,8.38
2019-04-03T13:55:35.005Z,8.73
2019-04-03T13:58:03.924Z,8.65
2019-04-03T14:00:34.019Z,8.95
2019-04-03T14:03:06.087Z,8.23
2019-04-03T14:05:35.889Z,9.55
2019-04-03T14:08:07.197Z,8.70
2019-04-03T14:10:40.255Z,8.30
2019-04-03T14:13:12.985Z,8.40
2019-04-03T14:15:43.270Z,8.55
2019-04-03T14:18:14.532Z,8.13
2019-04-03T14:20:46.982Z,8.73
2019-04-03T14:23:16.894Z,8.30
2019-04-03T14:25:46.793Z,9.00
2019-04-03T14:28:17.333Z,8.70
2019-04-03T14:30:49.519Z,9.00
2019-04-03T14:33:21.270Z,8.53
2019-04-03T14:35:53.619Z,8.85
2019-04-03T14:38:22.761Z,8.43
2019-04-03T14:40:53.071Z,7.58
2019-04-03T14:43:22.851Z,7.87
2019-04-03T14:45:57.793Z,8.43
2019-04-03T14:48:27.646Z,8.78
2019-04-03T14:50:57.670Z,8.20
2019-04-03T14:53:27.923Z,8.10
2019-04-03T14:55:58.586Z,8.13
2019-04-03T14:58:29.455Z,8.35
2019-04-03T15:00:59.688Z,8.30
2019-04-03T15:03:29.480Z,8.20
2019-04-03T15:05:59.310Z,8.60
2019-04-03T15:08:29.147Z,8.65
2019-04-03T15:10:58.973Z,8.15
2019-04-03T15:13:28.727Z,8.15
2019-04-03T15:16:00.254Z,8.40
2019-04-03T15:18:30.221Z,8.40
2019-04-03T15:21:00.179Z,8.00
2019-04-03T15:23:30.135Z,7.80
2019-04-03T15:26:00.133Z,8.48
2019-04-03T15:28:31.698Z,8.45
2019-04-03T15:31:01.692Z,8.63
2019-04-03T15:33:31.830Z,8.08
2019-04-03T15:36:03.960Z,8.23
2019-04-03T15:38:34.449Z,8.28
2019-04-03T15:41:04.537Z,7.58
2019-04-03T15:43:34.852Z,8.55
2019-04-03T15:46:05.034Z,8.03
2019-04-03T15:48:35.082Z,8.15
2019-04-03T15:51:07.457Z,7.97
2019-04-03T15:53:40.658Z,7.80
2019-04-03T15:56:13.601Z,7.12
2019-04-03T15:58:43.353Z,7.40
2019-04-03T16:01:13.759Z,7.47
2019-04-03T16:03:43.665Z,7.85
2019-04-03T16:06:13.742Z,7.37
2019-04-03T16:08:44.938Z,8.48
2019-04-03T16:11:15.180Z,8.10
2019-04-03T16:13:47.141Z,8.10
2019-04-03T16:16:16.615Z,7.33
2019-04-03T16:18:46.869Z,7.47
2019-04-03T16:21:28.109Z,7.55
2019-04-03T16:23:56.112Z,7.50
2019-04-03T16:26:25.995Z,8.13
2019-04-03T16:28:56.929Z,8.43
2019-04-03T16:31:29.289Z,8.00
2019-04-03T16:33:59.556Z,7.33
2019-04-03T16:36:35.046Z,7.60
2019-04-03T16:39:17.277Z,8.17
2019-04-03T16:41:46.703Z,8.60
2019-04-03T16:44:17.986Z,7.60
2019-04-03T16:46:48.273Z,8.20
2019-04-03T16:49:22.817Z,8.23
2019-04-03T16:51:54.656Z,7.13
2019-04-03T16:54:29.606Z,7.50
2019-04-03T16:57:02.320Z,8.30
2019-04-03T16:59:33.716Z,8.00
2019-04-03T17:02:06.943Z,8.20
2019-04-03T17:04:39.876Z,7.83
2019-04-03T17:07:11.873Z,7.70
2019-04-03T17:09:42.173Z,7.23
2019-04-03T17:12:12.817Z,7.20
2019-04-03T17:14:43.559Z,7.67
2019-04-03T17:17:19.950Z,7.83
2019-04-03T17:19:51.412Z,7.20
2019-04-03T17:22:24.835Z,6.90
2019-04-03T17:24:56.410Z,7.93
2019-04-03T17:27:30.185Z,8.43
2019-04-03T17:30:00.290Z,7.90
2019-04-03T17:32:31.183Z,7.10
2019-04-03T17:35:02.129Z,7.70
2019-04-03T17:37:36.659Z,7.43
2019-04-03T17:40:09.937Z,7.63
2019-04-03T17:42:41.872Z,7.23
2019-04-03T17:45:15.409Z,6.80
2019-04-03T17:47:44.967Z,7.60
2019-04-03T17:50:15.769Z,7.97
2019-04-03T17:52:46.802Z,7.77
2019-04-03T17:55:22.276Z,7.97
2019-04-03T17:57:52.953Z,8.13
2019-04-03T18:00:26.077Z,8.17
2019-04-03T18:02:56.809Z,7.97
2019-04-03T18:05:27.403Z,8.60
2019-04-03T18:08:10.532Z,8.13
2019-04-03T18:10:49.024Z,7.53
2019-04-03T18:13:19.338Z,7.60
2019-04-03T18:16:13.355Z,7.83
2019-04-03T18:18:50.131Z,8.03
2019-04-03T18:21:28.666Z,7.77
2019-04-03T18:24:08.113Z,7.63
2019-04-03T18:26:41.119Z,7.57
2019-04-03T18:29:17.923Z,8.13
2019-04-03T18:31:55.226Z,7.77
2019-04-03T18:34:24.280Z,7.63
2019-04-03T18:36:56.759Z,7.00
2019-04-03T18:39:29.972Z,7.63
2019-04-03T18:42:04.413Z,7.60
2019-04-03T18:44:39.815Z,7.57
2019-04-03T18:47:13.809Z,8.00
2019-04-03T18:49:49.004Z,7.80
2019-04-03T18:52:22.819Z,7.87
2019-04-03T18:54:54.015Z,7.83
2019-04-03T18:57:27.090Z,7.60
2019-04-03T19:00:01.070Z,7.57
2019-04-03T19:02:34.302Z,8.10
2019-04-03T19:05:10.103Z,7.47
2019-04-03T19:07:48.411Z,7.20
2019-04-03T19:10:23.240Z,6.90
2019-04-03T19:13:04.312Z,6.70
2019-04-03T19:15:44.123Z,6.73
2019-04-03T19:18:23.120Z,7.50
2019-04-03T19:20:54.110Z,6.70
2019-04-03T19:23:30.311Z,6.93
2019-04-03T19:26:08.005Z,6.50
2019-04-03T19:28:40.273Z,6.90
2019-04-03T19:31:17.966Z,6.23
2019-04-03T19:33:49.500Z,6.83
2019-04-03T19:36:29.461Z,6.60
2019-04-03T19:39:07.204Z,6.83
2019-04-03T19:41:42.762Z,6.37
2019-04-03T19:44:19.082Z,6.47
2019-04-03T19:46:54.007Z,7.07
2019-04-03T19:49:30.395Z,6.53
2019-04-03T19:52:02.556Z,7.30
2019-04-03T19:54:35.611Z,6.30
2019-04-03T19:57:08.759Z,7.10
2019-04-03T19:59:40.203Z,6.70
2019-04-03T20:02:11.799Z,7.70
2019-04-03T20:04:47.749Z,6.87
2019-04-03T20:07:21.053Z,6.13
2019-04-03T20:10:09.355Z,6.43
2019-04-03T20:13:02.795Z,7.10
2019-04-03T20:15:36.784Z,6.80
2019-04-03T20:18:07.885Z,6.63
2019-04-03T20:20:39.538Z,6.77
2019-04-03T20:23:10.741Z,6.77
2019-04-03T20:25:44.062Z,6.10
2019-04-03T20:28:17.054Z,6.47
2019-04-03T20:30:47.884Z,5.80
2019-04-03T20:33:19.679Z,6.93
2019-04-03T20:35:54.238Z,6.10
2019-04-03T20:38:28.021Z,5.90
2019-04-03T20:40:59.203Z,6.37
2019-04-03T20:43:29.874Z,6.77
2019-04-03T20:46:02.914Z,6.60
2019-04-03T20:48:36.664Z,6.30
2019-04-03T20:51:11.311Z,7.00
2019-04-03T20:53:41.779Z,6.37
2019-04-03T20:56:12.191Z,6.80
2019-04-03T20:58:54.919Z,6.77
2019-04-03T21:01:16.665Z,6.97
2019-04-03T21:03:47.154Z,6.40
2019-04-03T21:06:20.347Z,6.20
2019-04-03T21:08:49.950Z,6.70
2019-04-03T21:11:21.757Z,6.33
2019-04-03T21:13:52.140Z,6.23
2019-04-03T21:16:32.708Z,7.10
2019-04-03T21:18:54.435Z,6.80
2019-04-03T21:21:25.719Z,6.50
2019-04-03T21:23:56.268Z,6.23
2019-04-03T21:26:26.615Z,6.73
2019-04-03T21:28:56.504Z,6.80
2019-04-03T21:31:26.630Z,6.13
2019-04-03T21:33:56.730Z,6.70
2019-04-03T21:36:26.913Z,6.67
2019-04-03T21:38:56.830Z,6.43
2019-04-03T21:41:26.911Z,7.67
2019-04-03T21:43:59.723Z,6.33
2019-04-03T21:46:28.573Z,7.67
2019-04-03T21:48:58.812Z,7.47
2019-04-03T21:51:30.653Z,6.33
2019-04-03T21:54:00.206Z,6.90
2019-04-03T21:56:31.023Z,6.90
2019-04-03T21:59:01.993Z,6.93
2019-04-03T22:01:32.211Z,7.30
2019-04-03T22:04:02.117Z,7.30
2019-04-03T22:06:32.027Z,7.50
2019-04-03T22:09:01.942Z,6.97
2019-04-03T22:11:35.482Z,7.77
2019-04-03T22:14:06.176Z,7.40
2019-04-03T22:16:36.209Z,7.13
2019-04-03T22:19:06.452Z,7.10
2019-04-03T22:21:36.350Z,7.07
2019-04-03T22:24:06.895Z,6.77
2019-04-03T22:26:38.839Z,6.50
2019-04-03T22:29:09.326Z,7.50
2019-04-03T22:31:39.267Z,7.47
2019-04-03T22:34:09.307Z,7.13
2019-04-03T22:36:39.154Z,6.80
2019-04-03T22:39:13.983Z,7.30
2019-04-03T22:41:43.628Z,7.43
2019-04-03T22:44:16.754Z,6.93
2019-04-03T22:46:45.306Z,6.90
2019-04-03T22:49:15.288Z,7.43
2019-04-03T22:51:45.316Z,6.87
2019-04-03T22:54:15.424Z,6.97
2019-04-03T22:56:45.900Z,6.80
2019-04-03T22:59:17.004Z,7.20
2019-04-03T23:01:47.147Z,7.17
2019-04-03T23:04:17.142Z,7.13
2019-04-03T23:06:49.328Z,7.17
2019-04-03T23:09:18.811Z,7.43
2019-04-03T23:11:49.053Z,7.17
2019-04-03T23:14:18.953Z,7.93
2019-04-03T23:16:48.991Z,7.87
2019-04-03T23:19:19.949Z,7.27
2019-04-03T23:21:50.015Z,6.63
2019-04-03T23:24:19.961Z,6.97
2019-04-03T23:26:53.116Z,7.60
2019-04-03T23:29:22.998Z,7.23
2019-04-03T23:31:52.876Z,7.63
2019-04-03T23:34:22.765Z,7.20
2019-04-03T23:36:54.295Z,7.70
2019-04-03T23:39:24.124Z,7.60
2019-04-03T23:41:54.145Z,7.93
2019-04-03T23:44:23.948Z,7.03
2019-04-03T23:46:54.095Z,7.90
2019-04-03T23:49:23.991Z,7.60
2019-04-03T23:51:53.872Z,7.43
2019-04-03T23:54:23.815Z,7.43
2019-04-03T23:56:53.797Z,7.33
2019-04-03T23:59:23.547Z,8.10
